sensor_id;sensor_type;location;lat;lon;timestamp;pressure;altitude;pressure_sealevel;temperature;humidity
49194;BME280;35029;50.804;12.866;2022-08-03T00:01:36;97845.84;;;18.51;74.33
49194;BME280;35029;50.804;12.866;2022-08-03T00:04:02;97849.59;;;18.50;74.12
49194;BME280;35029;50.804;12.866;2022-08-03T00:06:28;97847.66;;;18.45;74.09
49194;BME280;35029;50.804;12.866;2022-08-03T00:08:54;97852.19;;;18.45;74.30
49194;BME280;35029;50.804;12.866;2022-08-03T00:11:19;97850.69;;;18.49;74.21
49194;BME280;35029;50.804;12.866;2022-08-03T00:13:45;97855.13;;;18.43;74.20
49194;BME280;35029;50.804;12.866;2022-08-03T00:16:10;97848.31;;;18.35;74.99
49194;BME280;35029;50.804;12.866;2022-08-03T00:18:36;97838.38;;;18.19;75.14
49194;BME280;35029;50.804;12.866;2022-08-03T00:21:02;97847.72;;;18.33;75.61
49194;BME280;35029;50.804;12.866;2022-08-03T00:23:28;97851.53;;;18.37;75.19
49194;BME280;35029;50.804;12.866;2022-08-03T00:25:53;97855.69;;;18.45;74.03
49194;BME280;35029;50.804;12.866;2022-08-03T00:28:19;97852.84;;;18.35;74.31
49194;BME280;35029;50.804;12.866;2022-08-03T00:30:45;97861.28;;;18.27;75.16
49194;BME280;35029;50.804;12.866;2022-08-03T00:33:10;97851.06;;;18.23;75.44
49194;BME280;35029;50.804;12.866;2022-08-03T00:35:36;97848.13;;;18.25;75.20
49194;BME280;35029;50.804;12.866;2022-08-03T00:38:01;97853.16;;;18.21;74.54
49194;BME280;35029;50.804;12.866;2022-08-03T00:40:27;97854.94;;;18.16;75.48
49194;BME280;35029;50.804;12.866;2022-08-03T00:42:55;97857.06;;;18.14;75.30
49194;BME280;35029;50.804;12.866;2022-08-03T00:45:26;97847.38;;;18.13;75.52
49194;BME280;35029;50.804;12.866;2022-08-03T00:47:52;97853.47;;;18.08;76.23
49194;BME280;35029;50.804;12.866;2022-08-03T00:50:20;97855.31;;;18.07;76.16
49194;BME280;35029;50.804;12.866;2022-08-03T00:52:47;97847.44;;;18.01;76.09
49194;BME280;35029;50.804;12.866;2022-08-03T00:55:13;97855.72;;;17.99;76.27
49194;BME280;35029;50.804;12.866;2022-08-03T00:57:39;97835.34;;;17.86;76.58
49194;BME280;35029;50.804;12.866;2022-08-03T01:00:07;97849.06;;;18.02;75.91
49194;BME280;35029;50.804;12.866;2022-08-03T01:02:33;97850.22;;;18.06;76.35
49194;BME280;35029;50.804;12.866;2022-08-03T01:04:59;97845.56;;;18.01;76.43
49194;BME280;35029;50.804;12.866;2022-08-03T01:07:40;97837.69;;;17.95;76.25
49194;BME280;35029;50.804;12.866;2022-08-03T01:18:46;97843.78;;;17.78;77.90
49194;BME280;35029;50.804;12.866;2022-08-03T01:21:26;97840.91;;;17.68;78.20
49194;BME280;35029;50.804;12.866;2022-08-03T01:27:30;97840.72;;;17.57;78.90
49194;BME280;35029;50.804;12.866;2022-08-03T01:32:21;97848.66;;;17.52;78.99
49194;BME280;35029;50.804;12.866;2022-08-03T01:35:02;97848.97;;;17.56;79.81
49194;BME280;35029;50.804;12.866;2022-08-03T01:37:37;97833.97;;;17.55;79.33
49194;BME280;35029;50.804;12.866;2022-08-03T01:40:05;97845.00;;;17.58;78.65
49194;BME280;35029;50.804;12.866;2022-08-03T01:42:32;97844.94;;;17.53;79.18
49194;BME280;35029;50.804;12.866;2022-08-03T01:45:00;97840.13;;;17.55;78.68
49194;BME280;35029;50.804;12.866;2022-08-03T01:47:28;97838.31;;;17.44;78.19
49194;BME280;35029;50.804;12.866;2022-08-03T01:49:55;97850.41;;;17.47;78.95
49194;BME280;35029;50.804;12.866;2022-08-03T01:52:22;97850.66;;;17.45;78.81
49194;BME280;35029;50.804;12.866;2022-08-03T01:54:51;97842.38;;;17.47;78.40
49194;BME280;35029;50.804;12.866;2022-08-03T01:57:18;97850.88;;;17.44;78.24
49194;BME280;35029;50.804;12.866;2022-08-03T01:59:46;97844.72;;;17.43;78.38
49194;BME280;35029;50.804;12.866;2022-08-03T02:02:14;97852.41;;;17.39;78.48
49194;BME280;35029;50.804;12.866;2022-08-03T02:04:41;97849.94;;;17.38;78.34
49194;BME280;35029;50.804;12.866;2022-08-03T02:07:09;97833.22;;;17.31;78.44
49194;BME280;35029;50.804;12.866;2022-08-03T02:09:39;97832.84;;;17.27;78.22
49194;BME280;35029;50.804;12.866;2022-08-03T02:12:08;97831.44;;;17.36;78.87
49194;BME280;35029;50.804;12.866;2022-08-03T02:14:35;97836.78;;;17.36;78.42
49194;BME280;35029;50.804;12.866;2022-08-03T02:17:01;97835.41;;;17.34;78.02
49194;BME280;35029;50.804;12.866;2022-08-03T02:19:29;97842.03;;;17.31;78.23
49194;BME280;35029;50.804;12.866;2022-08-03T02:21:57;97837.53;;;17.32;78.19
49194;BME280;35029;50.804;12.866;2022-08-03T02:24:23;97837.16;;;17.28;78.37
49194;BME280;35029;50.804;12.866;2022-08-03T02:26:50;97843.25;;;17.23;78.27
49194;BME280;35029;50.804;12.866;2022-08-03T02:29:23;97837.19;;;17.16;78.56
49194;BME280;35029;50.804;12.866;2022-08-03T02:31:50;97840.56;;;17.12;79.18
49194;BME280;35029;50.804;12.866;2022-08-03T02:34:17;97835.22;;;17.12;78.79
49194;BME280;35029;50.804;12.866;2022-08-03T02:36:46;97838.81;;;17.05;79.41
49194;BME280;35029;50.804;12.866;2022-08-03T02:39:16;97851.19;;;17.06;79.48
49194;BME280;35029;50.804;12.866;2022-08-03T02:41:47;97843.38;;;17.05;79.88
49194;BME280;35029;50.804;12.866;2022-08-03T02:44:13;97835.78;;;17.14;79.34
49194;BME280;35029;50.804;12.866;2022-08-03T02:46:44;97833.94;;;17.14;78.52
49194;BME280;35029;50.804;12.866;2022-08-03T02:49:12;97839.41;;;17.08;78.91
49194;BME280;35029;50.804;12.866;2022-08-03T02:51:39;97838.03;;;17.05;78.83
49194;BME280;35029;50.804;12.866;2022-08-03T02:54:06;97828.47;;;16.97;78.64
49194;BME280;35029;50.804;12.866;2022-08-03T02:56:34;97830.22;;;16.92;79.37
49194;BME280;35029;50.804;12.866;2022-08-03T02:59:00;97834.06;;;16.84;79.20
49194;BME280;35029;50.804;12.866;2022-08-03T03:01:26;97834.06;;;16.84;79.12
49194;BME280;35029;50.804;12.866;2022-08-03T03:03:54;97832.75;;;16.86;78.64
49194;BME280;35029;50.804;12.866;2022-08-03T03:06:21;97835.59;;;16.80;79.47
49194;BME280;35029;50.804;12.866;2022-08-03T03:08:48;97828.34;;;16.80;79.16
49194;BME280;35029;50.804;12.866;2022-08-03T03:11:16;97834.50;;;16.81;79.22
49194;BME280;35029;50.804;12.866;2022-08-03T03:13:43;97830.34;;;16.73;79.01
49194;BME280;35029;50.804;12.866;2022-08-03T03:16:11;97840.09;;;16.67;79.44
49194;BME280;35029;50.804;12.866;2022-08-03T03:18:38;97832.78;;;16.63;79.61
49194;BME280;35029;50.804;12.866;2022-08-03T03:21:04;97831.38;;;16.60;80.03
49194;BME280;35029;50.804;12.866;2022-08-03T03:23:35;97830.53;;;16.48;80.20
49194;BME280;35029;50.804;12.866;2022-08-03T03:26:02;97832.19;;;16.49;80.56
49194;BME280;35029;50.804;12.866;2022-08-03T03:28:27;97834.16;;;16.42;80.98
49194;BME280;35029;50.804;12.866;2022-08-03T03:30:54;97828.91;;;16.47;81.24
49194;BME280;35029;50.804;12.866;2022-08-03T03:33:21;97831.72;;;16.52;80.40
49194;BME280;35029;50.804;12.866;2022-08-03T03:35:47;97833.22;;;16.48;80.48
49194;BME280;35029;50.804;12.866;2022-08-03T03:38:13;97823.66;;;16.40;81.20
49194;BME280;35029;50.804;12.866;2022-08-03T03:40:39;97825.44;;;16.46;81.15
49194;BME280;35029;50.804;12.866;2022-08-03T03:43:09;97836.38;;;16.56;80.10
49194;BME280;35029;50.804;12.866;2022-08-03T03:45:36;97827.19;;;16.52;80.47
49194;BME280;35029;50.804;12.866;2022-08-03T03:48:03;97823.00;;;16.45;80.60
49194;BME280;35029;50.804;12.866;2022-08-03T03:50:30;97821.47;;;16.49;80.64
49194;BME280;35029;50.804;12.866;2022-08-03T03:52:56;97820.31;;;16.45;80.76
49194;BME280;35029;50.804;12.866;2022-08-03T03:55:22;97829.97;;;16.46;81.28
49194;BME280;35029;50.804;12.866;2022-08-03T03:57:48;97829.75;;;16.47;80.96
49194;BME280;35029;50.804;12.866;2022-08-03T04:00:15;97831.59;;;16.47;81.02
49194;BME280;35029;50.804;12.866;2022-08-03T04:02:41;97836.69;;;16.48;81.14
49194;BME280;35029;50.804;12.866;2022-08-03T04:05:07;97837.16;;;16.45;81.25
49194;BME280;35029;50.804;12.866;2022-08-03T04:13:36;97834.75;;;16.55;81.74
49194;BME280;35029;50.804;12.866;2022-08-03T04:16:04;97830.19;;;16.56;81.14
49194;BME280;35029;50.804;12.866;2022-08-03T04:18:33;97839.16;;;16.50;81.71
49194;BME280;35029;50.804;12.866;2022-08-03T04:21:05;97837.31;;;16.50;81.73
49194;BME280;35029;50.804;12.866;2022-08-03T04:23:34;97837.19;;;16.57;81.88
49194;BME280;35029;50.804;12.866;2022-08-03T04:26:02;97839.88;;;16.69;81.59
49194;BME280;35029;50.804;12.866;2022-08-03T04:28:31;97844.16;;;16.70;81.17
49194;BME280;35029;50.804;12.866;2022-08-03T04:31:02;97847.69;;;16.70;81.44
49194;BME280;35029;50.804;12.866;2022-08-03T04:33:31;97849.44;;;16.65;82.66
49194;BME280;35029;50.804;12.866;2022-08-03T04:35:59;97851.53;;;16.75;82.71
49194;BME280;35029;50.804;12.866;2022-08-03T04:38:25;97845.94;;;16.88;82.19
49194;BME280;35029;50.804;12.866;2022-08-03T04:40:54;97846.19;;;16.98;81.54
49194;BME280;35029;50.804;12.866;2022-08-03T04:43:21;97849.44;;;17.00;81.77
49194;BME280;35029;50.804;12.866;2022-08-03T04:45:48;97846.66;;;17.07;81.68
49194;BME280;35029;50.804;12.866;2022-08-03T04:48:15;97853.28;;;17.04;82.05
49194;BME280;35029;50.804;12.866;2022-08-03T04:50:42;97854.22;;;17.10;81.78
49194;BME280;35029;50.804;12.866;2022-08-03T04:53:08;97862.00;;;17.12;82.62
49194;BME280;35029;50.804;12.866;2022-08-03T04:55:34;97852.22;;;17.05;82.67
49194;BME280;35029;50.804;12.866;2022-08-03T04:58:00;97866.09;;;17.14;83.28
49194;BME280;35029;50.804;12.866;2022-08-03T05:00:26;97861.09;;;17.18;83.52
49194;BME280;35029;50.804;12.866;2022-08-03T05:02:52;97856.72;;;17.29;83.29
49194;BME280;35029;50.804;12.866;2022-08-03T05:05:18;97864.19;;;17.27;84.35
49194;BME280;35029;50.804;12.866;2022-08-03T05:07:44;97851.28;;;17.23;84.62
49194;BME280;35029;50.804;12.866;2022-08-03T05:10:11;97865.91;;;17.45;84.32
49194;BME280;35029;50.804;12.866;2022-08-03T05:12:37;97865.22;;;17.49;84.18
49194;BME280;35029;50.804;12.866;2022-08-03T05:15:03;97861.56;;;17.55;84.66
49194;BME280;35029;50.804;12.866;2022-08-03T05:17:28;97851.44;;;17.57;84.71
49194;BME280;35029;50.804;12.866;2022-08-03T05:19:55;97859.28;;;17.76;84.34
49194;BME280;35029;50.804;12.866;2022-08-03T05:22:21;97852.97;;;17.82;84.36
49194;BME280;35029;50.804;12.866;2022-08-03T05:24:47;97853.19;;;17.93;84.37
49194;BME280;35029;50.804;12.866;2022-08-03T05:27:13;97850.69;;;18.03;84.04
49194;BME280;35029;50.804;12.866;2022-08-03T05:29:48;97849.25;;;18.12;83.64
49194;BME280;35029;50.804;12.866;2022-08-03T05:32:14;97853.41;;;18.20;83.56
49194;BME280;35029;50.804;12.866;2022-08-03T05:34:40;97847.63;;;18.28;83.54
49194;BME280;35029;50.804;12.866;2022-08-03T05:37:06;97838.53;;;18.29;83.81
49194;BME280;35029;50.804;12.866;2022-08-03T05:39:32;97841.06;;;18.36;83.40
49194;BME280;35029;50.804;12.866;2022-08-03T05:41:58;97850.25;;;18.57;83.52
49194;BME280;35029;50.804;12.866;2022-08-03T05:44:23;97852.53;;;18.65;83.76
49194;BME280;35029;50.804;12.866;2022-08-03T05:46:50;97856.91;;;18.71;83.69
49194;BME280;35029;50.804;12.866;2022-08-03T05:49:16;97853.81;;;18.80;83.61
49194;BME280;35029;50.804;12.866;2022-08-03T05:51:41;97863.91;;;18.89;83.25
49194;BME280;35029;50.804;12.866;2022-08-03T05:54:07;97845.44;;;18.93;82.95
49194;BME280;35029;50.804;12.866;2022-08-03T05:56:32;97860.78;;;19.15;81.94
49194;BME280;35029;50.804;12.866;2022-08-03T05:58:58;97842.50;;;19.12;80.97
49194;BME280;35029;50.804;12.866;2022-08-03T06:01:23;97858.63;;;19.34;77.85
49194;BME280;35029;50.804;12.866;2022-08-03T06:03:49;97856.69;;;19.51;76.63
49194;BME280;35029;50.804;12.866;2022-08-03T06:06:16;97859.28;;;19.68;76.09
49194;BME280;35029;50.804;12.866;2022-08-03T06:08:42;97864.31;;;19.82;76.40
49194;BME280;35029;50.804;12.866;2022-08-03T06:11:08;97857.19;;;19.92;76.18
49194;BME280;35029;50.804;12.866;2022-08-03T06:13:34;97872.06;;;20.00;76.32
49194;BME280;35029;50.804;12.866;2022-08-03T06:16:00;97860.31;;;20.12;76.20
49194;BME280;35029;50.804;12.866;2022-08-03T06:18:26;97858.22;;;20.19;75.88
49194;BME280;35029;50.804;12.866;2022-08-03T06:20:51;97867.47;;;20.28;75.81
49194;BME280;35029;50.804;12.866;2022-08-03T06:23:17;97855.19;;;20.37;75.75
49194;BME280;35029;50.804;12.866;2022-08-03T06:25:43;97861.19;;;20.50;75.49
49194;BME280;35029;50.804;12.866;2022-08-03T06:28:09;97857.75;;;20.59;75.33
49194;BME280;35029;50.804;12.866;2022-08-03T06:30:34;97849.22;;;20.68;75.19
49194;BME280;35029;50.804;12.866;2022-08-03T06:33:00;97856.63;;;20.83;75.06
49194;BME280;35029;50.804;12.866;2022-08-03T06:35:26;97851.81;;;20.90;74.60
49194;BME280;35029;50.804;12.866;2022-08-03T06:37:52;97866.75;;;21.08;73.52
49194;BME280;35029;50.804;12.866;2022-08-03T06:40:20;97856.59;;;21.25;71.87
49194;BME280;35029;50.804;12.866;2022-08-03T06:42:47;97855.28;;;21.33;71.12
49194;BME280;35029;50.804;12.866;2022-08-03T06:45:13;97850.47;;;21.45;70.73
49194;BME280;35029;50.804;12.866;2022-08-03T06:47:38;97858.16;;;21.69;70.54
49194;BME280;35029;50.804;12.866;2022-08-03T06:50:05;97861.44;;;21.82;68.92
49194;BME280;35029;50.804;12.866;2022-08-03T06:52:31;97858.50;;;21.99;66.51
49194;BME280;35029;50.804;12.866;2022-08-03T06:54:57;97860.44;;;22.19;65.51
49194;BME280;35029;50.804;12.866;2022-08-03T06:57:23;97854.50;;;22.27;66.16
49194;BME280;35029;50.804;12.866;2022-08-03T06:59:49;97856.44;;;22.47;63.98
49194;BME280;35029;50.804;12.866;2022-08-03T07:02:15;97855.88;;;22.60;62.41
49194;BME280;35029;50.804;12.866;2022-08-03T07:04:42;97862.91;;;22.77;61.62
49194;BME280;35029;50.804;12.866;2022-08-03T07:07:08;97866.94;;;22.90;60.77
49194;BME280;35029;50.804;12.866;2022-08-03T07:09:33;97860.41;;;23.01;60.62
49194;BME280;35029;50.804;12.866;2022-08-03T07:11:59;97848.81;;;23.06;60.52
49194;BME280;35029;50.804;12.866;2022-08-03T07:14:26;97864.22;;;23.21;59.27
49194;BME280;35029;50.804;12.866;2022-08-03T07:16:52;97861.44;;;23.36;57.60
49194;BME280;35029;50.804;12.866;2022-08-03T07:19:17;97862.47;;;23.51;57.80
49194;BME280;35029;50.804;12.866;2022-08-03T07:21:43;97865.97;;;23.61;54.73
49194;BME280;35029;50.804;12.866;2022-08-03T07:24:09;97849.94;;;23.70;54.08
49194;BME280;35029;50.804;12.866;2022-08-03T07:26:35;97825.88;;;23.63;52.71
49194;BME280;35029;50.804;12.866;2022-08-03T07:29:00;97857.41;;;23.94;49.33
49194;BME280;35029;50.804;12.866;2022-08-03T07:31:26;97853.56;;;24.05;49.45
49194;BME280;35029;50.804;12.866;2022-08-03T07:33:52;97864.31;;;24.16;47.86
49194;BME280;35029;50.804;12.866;2022-08-03T07:36:17;97857.50;;;24.23;47.85
49194;BME280;35029;50.804;12.866;2022-08-03T07:38:42;97842.31;;;24.27;49.00
49194;BME280;35029;50.804;12.866;2022-08-03T07:41:08;97851.63;;;24.45;47.35
49194;BME280;35029;50.804;12.866;2022-08-03T07:43:33;97854.28;;;24.56;48.65
49194;BME280;35029;50.804;12.866;2022-08-03T07:45:59;97851.78;;;24.64;49.08
49194;BME280;35029;50.804;12.866;2022-08-03T07:48:24;97849.06;;;24.64;49.97
49194;BME280;35029;50.804;12.866;2022-08-03T07:50:50;97849.03;;;24.70;48.30
49194;BME280;35029;50.804;12.866;2022-08-03T07:53:17;97853.25;;;24.81;45.95
49194;BME280;35029;50.804;12.866;2022-08-03T07:55:42;97850.97;;;24.93;46.00
49194;BME280;35029;50.804;12.866;2022-08-03T07:58:10;97848.44;;;25.02;46.50
49194;BME280;35029;50.804;12.866;2022-08-03T08:00:47;97849.44;;;25.11;44.04
49194;BME280;35029;50.804;12.866;2022-08-03T08:03:12;97854.50;;;25.18;45.16
49194;BME280;35029;50.804;12.866;2022-08-03T08:05:38;97851.97;;;25.27;42.82
49194;BME280;35029;50.804;12.866;2022-08-03T08:08:03;97855.69;;;25.36;42.24
49194;BME280;35029;50.804;12.866;2022-08-03T08:10:29;97852.84;;;25.46;41.95
49194;BME280;35029;50.804;12.866;2022-08-03T08:12:56;97851.25;;;25.64;42.96
49194;BME280;35029;50.804;12.866;2022-08-03T08:15:21;97852.22;;;25.74;42.58
49194;BME280;35029;50.804;12.866;2022-08-03T08:17:52;97839.78;;;25.73;44.11
49194;BME280;35029;50.804;12.866;2022-08-03T08:20:21;97856.16;;;25.87;42.84
49194;BME280;35029;50.804;12.866;2022-08-03T08:22:47;97848.44;;;25.94;42.53
49194;BME280;35029;50.804;12.866;2022-08-03T08:25:12;97845.66;;;25.99;44.80
49194;BME280;35029;50.804;12.866;2022-08-03T08:27:46;97846.31;;;25.91;41.97
49194;BME280;35029;50.804;12.866;2022-08-03T08:30:13;97849.47;;;25.98;43.36
49194;BME280;35029;50.804;12.866;2022-08-03T08:32:39;97846.72;;;26.03;42.51
49194;BME280;35029;50.804;12.866;2022-08-03T08:35:06;97850.38;;;26.12;43.62
49194;BME280;35029;50.804;12.866;2022-08-03T08:37:32;97849.84;;;26.29;43.31
49194;BME280;35029;50.804;12.866;2022-08-03T08:39:58;97842.41;;;26.35;43.01
49194;BME280;35029;50.804;12.866;2022-08-03T08:42:24;97848.88;;;26.39;43.31
49194;BME280;35029;50.804;12.866;2022-08-03T08:44:49;97830.66;;;26.40;42.34
49194;BME280;35029;50.804;12.866;2022-08-03T08:47:20;97832.13;;;26.65;42.46
49194;BME280;35029;50.804;12.866;2022-08-03T08:49:51;97839.75;;;26.82;40.95
49194;BME280;35029;50.804;12.866;2022-08-03T08:52:22;97837.38;;;26.94;39.69
49194;BME280;35029;50.804;12.866;2022-08-03T08:54:48;97839.09;;;27.04;39.90
49194;BME280;35029;50.804;12.866;2022-08-03T08:57:15;97836.75;;;27.11;38.39
49194;BME280;35029;50.804;12.866;2022-08-03T08:59:42;97840.00;;;27.13;39.77
49194;BME280;35029;50.804;12.866;2022-08-03T09:02:09;97831.72;;;27.19;38.38
49194;BME280;35029;50.804;12.866;2022-08-03T09:04:37;97835.34;;;27.28;39.17
49194;BME280;35029;50.804;12.866;2022-08-03T09:07:03;97829.22;;;27.22;38.82
49194;BME280;35029;50.804;12.866;2022-08-03T09:09:30;97829.22;;;27.36;39.51
49194;BME280;35029;50.804;12.866;2022-08-03T09:11:55;97834.47;;;27.46;39.12
49194;BME280;35029;50.804;12.866;2022-08-03T09:14:21;97831.25;;;27.58;39.07
49194;BME280;35029;50.804;12.866;2022-08-03T09:16:57;97838.56;;;27.72;39.50
49194;BME280;35029;50.804;12.866;2022-08-03T09:19:27;97837.25;;;27.83;38.67
49194;BME280;35029;50.804;12.866;2022-08-03T09:22:14;97829.28;;;27.73;37.99
49194;BME280;35029;50.804;12.866;2022-08-03T09:25:13;97827.44;;;27.82;38.75
49194;BME280;35029;50.804;12.866;2022-08-03T09:27:43;97824.31;;;27.89;39.82
49194;BME280;35029;50.804;12.866;2022-08-03T09:30:13;97824.69;;;27.96;36.66
49194;BME280;35029;50.804;12.866;2022-08-03T09:32:39;97826.59;;;28.09;37.73
49194;BME280;35029;50.804;12.866;2022-08-03T09:35:04;97818.78;;;28.16;37.06
49194;BME280;35029;50.804;12.866;2022-08-03T09:37:30;97824.69;;;28.32;37.28
49194;BME280;35029;50.804;12.866;2022-08-03T09:39:55;97827.88;;;28.34;36.58
49194;BME280;35029;50.804;12.866;2022-08-03T09:42:21;97818.16;;;28.42;36.72
49194;BME280;35029;50.804;12.866;2022-08-03T09:44:51;97819.69;;;28.57;36.04
49194;BME280;35029;50.804;12.866;2022-08-03T09:47:28;97799.06;;;28.42;35.15
49194;BME280;35029;50.804;12.866;2022-08-03T09:49:59;97818.41;;;28.55;34.63
49194;BME280;35029;50.804;12.866;2022-08-03T09:52:33;97823.38;;;28.53;34.42
49194;BME280;35029;50.804;12.866;2022-08-03T09:55:00;97818.03;;;28.47;34.21
49194;BME280;35029;50.804;12.866;2022-08-03T09:57:27;97821.13;;;28.55;34.91
49194;BME280;35029;50.804;12.866;2022-08-03T10:00:08;97819.63;;;28.71;34.99
49194;BME280;35029;50.804;12.866;2022-08-03T10:02:40;97811.53;;;28.89;35.10
49194;BME280;35029;50.804;12.866;2022-08-03T10:05:08;97816.22;;;28.97;34.50
49194;BME280;35029;50.804;12.866;2022-08-03T10:07:46;97813.09;;;29.12;33.79
49194;BME280;35029;50.804;12.866;2022-08-03T10:10:13;97818.16;;;28.96;32.99
49194;BME280;35029;50.804;12.866;2022-08-03T10:12:40;97809.81;;;28.93;32.35
49194;BME280;35029;50.804;12.866;2022-08-03T10:15:07;97809.03;;;29.01;32.84
49194;BME280;35029;50.804;12.866;2022-08-03T10:17:32;97815.00;;;29.03;33.00
49194;BME280;35029;50.804;12.866;2022-08-03T10:19:58;97804.94;;;29.21;32.87
49194;BME280;35029;50.804;12.866;2022-08-03T10:22:33;97812.25;;;29.43;32.22
49194;BME280;35029;50.804;12.866;2022-08-03T10:25:03;97802.16;;;29.53;30.97
49194;BME280;35029;50.804;12.866;2022-08-03T10:27:32;97801.69;;;29.59;30.94
49194;BME280;35029;50.804;12.866;2022-08-03T10:30:00;97802.50;;;29.77;30.62
49194;BME280;35029;50.804;12.866;2022-08-03T10:32:33;97797.22;;;29.90;30.12
49194;BME280;35029;50.804;12.866;2022-08-03T10:35:06;97799.28;;;29.75;29.33
49194;BME280;35029;50.804;12.866;2022-08-03T10:37:36;97802.66;;;29.81;30.83
49194;BME280;35029;50.804;12.866;2022-08-03T10:40:06;97792.84;;;29.80;31.36
49194;BME280;35029;50.804;12.866;2022-08-03T10:42:33;97795.31;;;29.90;32.93
49194;BME280;35029;50.804;12.866;2022-08-03T10:45:06;97791.59;;;29.95;32.05
49194;BME280;35029;50.804;12.866;2022-08-03T10:47:34;97790.63;;;29.99;32.16
49194;BME280;35029;50.804;12.866;2022-08-03T10:50:00;97784.22;;;30.04;31.78
49194;BME280;35029;50.804;12.866;2022-08-03T10:52:26;97782.09;;;30.18;31.95
49194;BME280;35029;50.804;12.866;2022-08-03T10:54:52;97776.31;;;30.11;27.61
49194;BME280;35029;50.804;12.866;2022-08-03T10:57:46;97782.75;;;29.98;29.26
49194;BME280;35029;50.804;12.866;2022-08-03T11:00:14;97790.44;;;29.78;28.10
49194;BME280;35029;50.804;12.866;2022-08-03T11:05:28;97781.25;;;30.27;28.90
49194;BME280;35029;50.804;12.866;2022-08-03T11:10:45;97771.41;;;30.61;28.71
49194;BME280;35029;50.804;12.866;2022-08-03T11:13:14;97763.97;;;30.70;29.00
49194;BME280;35029;50.804;12.866;2022-08-03T11:15:43;97765.03;;;30.87;30.34
49194;BME280;35029;50.804;12.866;2022-08-03T11:18:10;97771.28;;;30.96;28.03
49194;BME280;35029;50.804;12.866;2022-08-03T11:20:46;97755.19;;;30.47;28.84
49194;BME280;35029;50.804;12.866;2022-08-03T11:23:14;97772.06;;;30.40;28.80
49194;BME280;35029;50.804;12.866;2022-08-03T11:26:14;97758.59;;;30.35;28.05
49194;BME280;35029;50.804;12.866;2022-08-03T11:28:42;97748.13;;;30.37;27.77
49194;BME280;35029;50.804;12.866;2022-08-03T11:34:05;97757.38;;;31.10;28.74
49194;BME280;35029;50.804;12.866;2022-08-03T11:39:45;97764.97;;;31.13;28.00
49194;BME280;35029;50.804;12.866;2022-08-03T11:44:50;97761.13;;;31.35;28.50
49194;BME280;35029;50.804;12.866;2022-08-03T11:47:16;97753.03;;;31.39;28.42
49194;BME280;35029;50.804;12.866;2022-08-03T11:49:49;97761.53;;;31.46;27.58
49194;BME280;35029;50.804;12.866;2022-08-03T11:52:16;97757.06;;;31.11;26.85
49194;BME280;35029;50.804;12.866;2022-08-03T11:54:42;97753.94;;;31.22;28.32
49194;BME280;35029;50.804;12.866;2022-08-03T11:57:08;97742.22;;;31.42;27.40
49194;BME280;35029;50.804;12.866;2022-08-03T11:59:36;97755.19;;;31.75;28.25
49194;BME280;35029;50.804;12.866;2022-08-03T12:02:09;97756.88;;;31.89;27.38
49194;BME280;35029;50.804;12.866;2022-08-03T12:04:51;97755.34;;;31.79;27.25
49194;BME280;35029;50.804;12.866;2022-08-03T12:07:16;97759.00;;;31.83;26.54
49194;BME280;35029;50.804;12.866;2022-08-03T12:09:43;97750.53;;;32.09;29.37
49194;BME280;35029;50.804;12.866;2022-08-03T12:12:08;97750.59;;;31.88;27.11
49194;BME280;35029;50.804;12.866;2022-08-03T12:14:34;97754.38;;;31.53;27.18
49194;BME280;35029;50.804;12.866;2022-08-03T12:16:59;97742.47;;;31.28;28.24
49194;BME280;35029;50.804;12.866;2022-08-03T12:19:25;97742.44;;;31.79;27.43
49194;BME280;35029;50.804;12.866;2022-08-03T12:21:51;97732.09;;;32.18;26.63
49194;BME280;35029;50.804;12.866;2022-08-03T12:24:16;97740.03;;;32.45;26.91
49194;BME280;35029;50.804;12.866;2022-08-03T12:26:46;97736.41;;;32.53;27.44
49194;BME280;35029;50.804;12.866;2022-08-03T12:29:22;97734.56;;;32.45;26.48
49194;BME280;35029;50.804;12.866;2022-08-03T12:31:50;97728.72;;;32.46;26.69
49194;BME280;35029;50.804;12.866;2022-08-03T12:34:15;97727.84;;;32.55;25.88
49194;BME280;35029;50.804;12.866;2022-08-03T12:36:52;97723.28;;;32.59;26.62
49194;BME280;35029;50.804;12.866;2022-08-03T12:39:22;97726.28;;;32.78;26.01
49194;BME280;35029;50.804;12.866;2022-08-03T12:41:52;97725.81;;;32.76;25.50
49194;BME280;35029;50.804;12.866;2022-08-03T12:44:27;97723.53;;;32.78;26.55
49194;BME280;35029;50.804;12.866;2022-08-03T12:46:56;97720.44;;;32.92;26.36
49194;BME280;35029;50.804;12.866;2022-08-03T12:49:22;97712.56;;;32.78;24.98
49194;BME280;35029;50.804;12.866;2022-08-03T12:54:21;97720.50;;;32.46;25.87
49194;BME280;35029;50.804;12.866;2022-08-03T12:57:09;97710.75;;;32.70;25.76
49194;BME280;35029;50.804;12.866;2022-08-03T12:59:39;97717.59;;;32.76;25.41
49194;BME280;35029;50.804;12.866;2022-08-03T13:04:39;97717.34;;;33.06;25.02
49194;BME280;35029;50.804;12.866;2022-08-03T13:07:08;97708.78;;;33.32;24.96
49194;BME280;35029;50.804;12.866;2022-08-03T13:09:55;97702.00;;;33.42;24.80
49194;BME280;35029;50.804;12.866;2022-08-03T13:12:23;97706.47;;;33.34;24.84
49194;BME280;35029;50.804;12.866;2022-08-03T13:14:51;97702.56;;;33.35;25.03
49194;BME280;35029;50.804;12.866;2022-08-03T13:17:18;97703.59;;;33.72;24.59
49194;BME280;35029;50.804;12.866;2022-08-03T13:19:44;97702.78;;;33.83;23.39
49194;BME280;35029;50.804;12.866;2022-08-03T13:22:16;97692.94;;;33.82;25.60
49194;BME280;35029;50.804;12.866;2022-08-03T13:24:43;97694.16;;;34.13;24.41
49194;BME280;35029;50.804;12.866;2022-08-03T13:27:09;97689.91;;;34.16;24.83
49194;BME280;35029;50.804;12.866;2022-08-03T13:29:35;97692.66;;;34.16;24.47
49194;BME280;35029;50.804;12.866;2022-08-03T13:32:01;97689.63;;;34.05;23.26
49194;BME280;35029;50.804;12.866;2022-08-03T13:34:27;97684.84;;;34.02;23.92